Página principal
METAR-TAF:

METAR-TAF

Aeroportos :

Pointe-Noire, Congo

latitude: 04-49S, longitude: 011-54E, altura: 17 m

Observação actual do tempo

O boletim foi feito há 1 hora e 56 minutos, às 15:00 UTC
Vento 14 kt de sul
Temperatura 28°C
Humidade 79%
Pressão 1007 hPa
Visibilidade 10 km ou mais
Nuvens dispersasa uma altura de 1300 ft

METAR: FCPP 201500Z 19014KT 9999 SCT013 28/24 Q1007 NOSIG

Hora: 17:56 (16:56 UTC)

Previsão

O boletim foi feito há 5 horas e 56 minutos, às 11:00 UTC
Previsão válida de 20 às 12 UTC a 21 às 12 UTC
Vento 8 kt de sul
Visibilidade 10 km ou mais
Nuvens dispersasa uma altura de 1300 ft
Nuvens fragmentadasa uma altura de 2300 ft

TAF: FCPP 201100Z 2012/2112 19008KT 9999 SCT013 BKN023

Observações e previsões do tempo de mais de 4000 aeroportos (mensagens METAR e TAF).

As estações disponíveis são os pontos amarelos e vermelhos sobre o mapa.

Mova o rato sobre o mapa para ver o nome da estação.

Depois clique no ponto para visualizar as observações e previsões meteorológicas.

Para alterar o mapa : clique nos botões verdes com uma cruz preta para aumentar o zoom; no botão verde com uma pitada de zoom; ou nas setas verdes para mapas adjacentes.


METAR-TAF: